Home   Weather   Spain   Vitoria-Gasteiz   Past weeks
Flag for Spain

Past Weather in Vitoria-Gasteiz, Álava, Spain — Yesterday and Last 2 Weeks

Currently: 50 °F. Passing clouds. (Weather station: Vitoria Airport, Spain). See more current weather

Past Weather in Vitoria-Gasteiz — Graph

°F

Vitoria-Gasteiz Temperature Yesterday

Maximum temperature yesterday: 84 °F (at 4:00 pm)
Minimum temperature yesterday: 39 °F (at 7:30 am)
Average temperature yesterday: 61 °F

High & Low Weather Summary for the Past Weeks

 TemperatureHumidityPressure
High86 °F (Apr 13, 5:00 pm)100% (Mar 31, 11:00 pm)30.54 "Hg (Mar 31, 11:00 pm)
Low32 °F (Apr 10, 7:30 am)19% (Apr 13, 4:00 pm)29.45 "Hg (Mar 31, 9:00 pm)
Average55 °F69%30.13 "Hg
* Reported Mar 31 9:00 pm — Apr 15 9:00 pm, Vitoria-Gasteiz. Weather by CustomWeather, © 2024

Note: Actual official high and low records may vary slightly from our data, if they occured in-between our weather recording intervals... More about our weather records

Vitoria-Gasteiz Weather History for the Previous 24 Hours

Scroll right to see more
 ConditionsComfort  
Time TempWeatherWind HumidityBarometerVisibility
9:00 pm
Mon, Apr 15
52 °FPassing clouds.10 mph77%30.27 "HgN/A
8:30 pm52 °FPartly sunny.5 mph82%30.27 "HgN/A
8:00 pm52 °FPartly sunny.7 mph82%30.27 "HgN/A
7:30 pm52 °FPartly sunny.9 mph88%30.27 "HgN/A
7:00 pm54 °FPartly sunny.13 mph82%30.27 "HgN/A
6:30 pm55 °FPartly sunny.10 mph77%30.27 "HgN/A
6:00 pm54 °FPartly sunny.12 mph82%30.27 "HgN/A
5:30 pm55 °FBroken clouds.14 mph77%30.27 "HgN/A
5:00 pm55 °FBroken clouds.13 mph82%30.27 "HgN/A
4:30 pm55 °FPartly sunny.15 mph82%30.27 "HgN/A
4:00 pm57 °FPartly sunny.13 mph77%30.27 "HgN/A
3:30 pm57 °FPartly sunny.9 mph82%30.27 "HgN/A
3:00 pm55 °FPartly sunny.9 mph82%30.30 "HgN/A
2:30 pm55 °FPartly sunny.8 mph82%30.30 "HgN/A
2:00 pm54 °FPartly sunny.9 mph88%30.30 "HgN/A
1:30 pm55 °FPartly sunny.12 mph82%30.30 "HgN/A
1:00 pm55 °FOvercast.9 mph77%30.30 "HgN/A
12:30 pm55 °FPartly sunny.6 mph82%30.30 "HgN/A
12:00 pm55 °FPartly sunny.5 mph82%30.30 "HgN/A
11:30 am55 °FPartly sunny.1 mph77%30.30 "HgN/A
11:00 am54 °FOvercast.5 mph88%30.30 "HgN/A
10:30 am54 °FPartly sunny.6 mph88%30.30 "HgN/A
10:00 am54 °FPartly sunny.1 mph88%30.27 "HgN/A
9:30 am52 °FPartly sunny.6 mph94%30.27 "HgN/A
9:00 am52 °FPartly sunny.No wind94%30.27 "HgN/A
8:30 am52 °FPartly sunny.2 mph94%30.27 "Hg6 mi
8:00 am52 °FOvercast.3 mph94%30.27 "Hg4 mi
7:30 am52 °FPartly sunny.3 mph94%30.24 "Hg4 mi
7:00 am52 °FPassing clouds.6 mph94%30.24 "Hg6 mi
6:30 am52 °FPassing clouds.7 mph94%30.24 "Hg6 mi
6:00 am52 °FPassing clouds.9 mph94%30.24 "Hg6 mi
5:30 am50 °FClear.5 mph94%30.24 "Hg6 mi
5:00 am50 °FClear.3 mph100%30.24 "Hg5 mi
4:30 am50 °FClear.3 mph94%30.24 "Hg6 mi
4:00 am50 °FClear.2 mph94%30.24 "Hg10 mi
3:30 am50 °FClear.5 mph94%30.24 "Hg10 mi
3:00 am48 °FClear.2 mph94%30.24 "Hg10 mi
2:30 am50 °FClear.5 mph88%30.24 "Hg10 mi
2:00 am50 °FPassing clouds.3 mph88%30.24 "HgN/A
1:30 am52 °FPassing clouds.3 mph82%30.24 "HgN/A
1:00 am52 °FClear.No wind82%30.24 "Hg10 mi
12:00 am54 °FClear.2 mph82%30.24 "Hg10 mi
11:30 pm
Sun, Apr 14
54 °FPassing clouds.3 mph77%30.24 "HgN/A
11:00 pm54 °FClear.5 mph82%30.24 "Hg10 mi
10:30 pm57 °FPassing clouds.5 mph72%30.24 "HgN/A
Weather by CustomWeather, © 2024

See weather overview